sensor_id;sensor_type;location;lat;lon;timestamp;P1;durP1;ratioP1;P2;durP2;ratioP2
16531;SDS011;66872;63.142;14.482;2023-04-01T00:02:18;2.63;;;1.70;;
16531;SDS011;66872;63.142;14.482;2023-04-01T00:04:44;2.73;;;1.70;;
16531;SDS011;66872;63.142;14.482;2023-04-01T00:07:10;1.83;;;1.43;;
16531;SDS011;66872;63.142;14.482;2023-04-01T00:09:36;2.73;;;1.60;;
16531;SDS011;66872;63.142;14.482;2023-04-01T00:12:02;1.87;;;1.50;;
16531;SDS011;66872;63.142;14.482;2023-04-01T00:14:28;2.43;;;1.60;;
16531;SDS011;66872;63.142;14.482;2023-04-01T00:16:54;2.00;;;1.37;;
16531;SDS011;66872;63.142;14.482;2023-04-01T00:19:20;2.00;;;1.40;;
16531;SDS011;66872;63.142;14.482;2023-04-01T00:21:46;2.83;;;1.60;;
16531;SDS011;66872;63.142;14.482;2023-04-01T00:24:13;2.13;;;1.57;;
16531;SDS011;66872;63.142;14.482;2023-04-01T00:26:39;1.77;;;1.43;;
16531;SDS011;66872;63.142;14.482;2023-04-01T00:29:07;2.10;;;1.47;;
16531;SDS011;66872;63.142;14.482;2023-04-01T00:31:33;2.33;;;1.60;;
16531;SDS011;66872;63.142;14.482;2023-04-01T00:33:58;2.50;;;1.57;;
16531;SDS011;66872;63.142;14.482;2023-04-01T00:36:24;1.93;;;1.23;;
16531;SDS011;66872;63.142;14.482;2023-04-01T00:38:50;2.97;;;1.60;;
16531;SDS011;66872;63.142;14.482;2023-04-01T00:41:17;2.13;;;1.73;;
16531;SDS011;66872;63.142;14.482;2023-04-01T00:43:45;1.63;;;1.30;;
16531;SDS011;66872;63.142;14.482;2023-04-01T00:46:12;1.60;;;1.50;;
16531;SDS011;66872;63.142;14.482;2023-04-01T00:48:39;1.70;;;1.50;;
16531;SDS011;66872;63.142;14.482;2023-04-01T00:51:11;1.73;;;1.50;;
16531;SDS011;66872;63.142;14.482;2023-04-01T00:53:41;2.30;;;1.77;;
16531;SDS011;66872;63.142;14.482;2023-04-01T00:56:11;2.23;;;1.50;;
16531;SDS011;66872;63.142;14.482;2023-04-01T00:58:43;2.03;;;1.60;;
16531;SDS011;66872;63.142;14.482;2023-04-01T01:01:13;1.90;;;1.47;;
16531;SDS011;66872;63.142;14.482;2023-04-01T01:03:39;1.60;;;1.50;;
16531;SDS011;66872;63.142;14.482;2023-04-01T01:06:10;1.90;;;1.40;;
16531;SDS011;66872;63.142;14.482;2023-04-01T01:11:36;2.30;;;1.50;;
16531;SDS011;66872;63.142;14.482;2023-04-01T01:16:34;1.70;;;1.40;;
16531;SDS011;66872;63.142;14.482;2023-04-01T01:34:04;2.33;;;1.50;;
16531;SDS011;66872;63.142;14.482;2023-04-01T01:36:53;1.90;;;1.30;;
16531;SDS011;66872;63.142;14.482;2023-04-01T01:39:23;2.00;;;1.40;;
16531;SDS011;66872;63.142;14.482;2023-04-01T01:41:55;1.80;;;1.60;;
16531;SDS011;66872;63.142;14.482;2023-04-01T01:44:23;1.93;;;1.47;;
16531;SDS011;66872;63.142;14.482;2023-04-01T01:46:51;1.40;;;1.30;;
16531;SDS011;66872;63.142;14.482;2023-04-01T01:49:17;1.60;;;1.40;;
16531;SDS011;66872;63.142;14.482;2023-04-01T01:51:44;1.90;;;1.27;;
16531;SDS011;66872;63.142;14.482;2023-04-01T01:54:13;2.77;;;1.60;;
16531;SDS011;66872;63.142;14.482;2023-04-01T01:56:41;3.13;;;1.30;;
16531;SDS011;66872;63.142;14.482;2023-04-01T01:59:10;1.70;;;1.27;;
16531;SDS011;66872;63.142;14.482;2023-04-01T02:01:41;1.90;;;1.20;;
16531;SDS011;66872;63.142;14.482;2023-04-01T02:04:10;1.40;;;1.30;;
16531;SDS011;66872;63.142;14.482;2023-04-01T02:06:41;2.80;;;1.40;;
16531;SDS011;66872;63.142;14.482;2023-04-01T02:09:11;2.40;;;1.30;;
16531;SDS011;66872;63.142;14.482;2023-04-01T02:11:39;2.03;;;1.50;;
16531;SDS011;66872;63.142;14.482;2023-04-01T02:14:15;1.87;;;1.40;;
16531;SDS011;66872;63.142;14.482;2023-04-01T02:19:19;1.20;;;1.10;;
16531;SDS011;66872;63.142;14.482;2023-04-01T02:21:49;1.60;;;1.20;;
16531;SDS011;66872;63.142;14.482;2023-04-01T02:24:17;2.23;;;1.30;;
16531;SDS011;66872;63.142;14.482;2023-04-01T02:26:47;2.00;;;1.37;;
16531;SDS011;66872;63.142;14.482;2023-04-01T02:29:15;1.27;;;1.17;;
16531;SDS011;66872;63.142;14.482;2023-04-01T02:31:46;2.13;;;1.53;;
16531;SDS011;66872;63.142;14.482;2023-04-01T02:34:13;2.33;;;1.30;;
16531;SDS011;66872;63.142;14.482;2023-04-01T02:36:39;1.30;;;1.20;;
16531;SDS011;66872;63.142;14.482;2023-04-01T02:39:05;1.67;;;1.30;;
16531;SDS011;66872;63.142;14.482;2023-04-01T02:41:31;1.87;;;1.30;;
16531;SDS011;66872;63.142;14.482;2023-04-01T02:44:03;1.73;;;1.27;;
16531;SDS011;66872;63.142;14.482;2023-04-01T02:46:29;1.33;;;1.23;;
16531;SDS011;66872;63.142;14.482;2023-04-01T02:48:54;1.73;;;1.40;;
16531;SDS011;66872;63.142;14.482;2023-04-01T02:51:20;2.17;;;1.33;;
16531;SDS011;66872;63.142;14.482;2023-04-01T02:53:46;1.10;;;1.00;;
16531;SDS011;66872;63.142;14.482;2023-04-01T02:56:11;1.43;;;1.10;;
16531;SDS011;66872;63.142;14.482;2023-04-01T02:58:37;2.00;;;1.37;;
16531;SDS011;66872;63.142;14.482;2023-04-01T03:01:02;1.60;;;1.17;;
16531;SDS011;66872;63.142;14.482;2023-04-01T03:03:28;1.57;;;1.20;;
16531;SDS011;66872;63.142;14.482;2023-04-01T03:05:54;1.40;;;1.20;;
16531;SDS011;66872;63.142;14.482;2023-04-01T03:08:25;1.40;;;1.10;;
16531;SDS011;66872;63.142;14.482;2023-04-01T03:10:50;1.50;;;1.20;;
16531;SDS011;66872;63.142;14.482;2023-04-01T03:13:16;1.20;;;1.10;;
16531;SDS011;66872;63.142;14.482;2023-04-01T03:15:41;1.10;;;1.00;;
16531;SDS011;66872;63.142;14.482;2023-04-01T03:18:07;1.27;;;1.17;;
16531;SDS011;66872;63.142;14.482;2023-04-01T03:20:33;1.20;;;1.03;;
16531;SDS011;66872;63.142;14.482;2023-04-01T03:22:58;1.97;;;1.20;;
16531;SDS011;66872;63.142;14.482;2023-04-01T03:25:24;1.80;;;1.23;;
16531;SDS011;66872;63.142;14.482;2023-04-01T03:27:50;1.60;;;1.30;;
16531;SDS011;66872;63.142;14.482;2023-04-01T03:30:15;1.47;;;1.10;;
16531;SDS011;66872;63.142;14.482;2023-04-01T03:32:41;1.60;;;1.23;;
16531;SDS011;66872;63.142;14.482;2023-04-01T03:35:07;1.77;;;1.30;;
16531;SDS011;66872;63.142;14.482;2023-04-01T03:37:34;1.23;;;1.10;;
16531;SDS011;66872;63.142;14.482;2023-04-01T03:40:00;1.70;;;1.10;;
16531;SDS011;66872;63.142;14.482;2023-04-01T03:42:26;1.20;;;1.00;;
16531;SDS011;66872;63.142;14.482;2023-04-01T03:44:51;1.47;;;1.30;;
16531;SDS011;66872;63.142;14.482;2023-04-01T03:47:17;1.20;;;1.10;;
16531;SDS011;66872;63.142;14.482;2023-04-01T03:49:42;1.37;;;1.27;;
16531;SDS011;66872;63.142;14.482;2023-04-01T03:52:09;1.20;;;1.10;;
16531;SDS011;66872;63.142;14.482;2023-04-01T03:54:35;1.20;;;1.00;;
16531;SDS011;66872;63.142;14.482;2023-04-01T03:57:01;2.20;;;1.30;;
16531;SDS011;66872;63.142;14.482;2023-04-01T03:59:27;1.23;;;1.10;;
16531;SDS011;66872;63.142;14.482;2023-04-01T04:01:53;1.57;;;1.20;;
16531;SDS011;66872;63.142;14.482;2023-04-01T04:04:18;1.67;;;0.87;;
16531;SDS011;66872;63.142;14.482;2023-04-01T04:06:45;1.40;;;1.10;;
16531;SDS011;66872;63.142;14.482;2023-04-01T04:09:10;1.50;;;1.10;;
16531;SDS011;66872;63.142;14.482;2023-04-01T04:11:36;1.47;;;1.20;;
16531;SDS011;66872;63.142;14.482;2023-04-01T04:14:02;2.10;;;1.20;;
16531;SDS011;66872;63.142;14.482;2023-04-01T04:16:27;1.20;;;1.10;;
16531;SDS011;66872;63.142;14.482;2023-04-01T04:18:53;1.40;;;1.20;;
16531;SDS011;66872;63.142;14.482;2023-04-01T04:21:19;1.20;;;1.10;;
16531;SDS011;66872;63.142;14.482;2023-04-01T04:23:45;1.97;;;1.20;;
16531;SDS011;66872;63.142;14.482;2023-04-01T04:26:11;1.20;;;1.10;;
16531;SDS011;66872;63.142;14.482;2023-04-01T04:28:39;1.63;;;1.00;;
16531;SDS011;66872;63.142;14.482;2023-04-01T04:31:05;1.23;;;1.13;;
16531;SDS011;66872;63.142;14.482;2023-04-01T04:33:32;0.80;;;0.80;;
16531;SDS011;66872;63.142;14.482;2023-04-01T04:35:58;1.60;;;1.10;;
16531;SDS011;66872;63.142;14.482;2023-04-01T04:38:24;1.23;;;1.00;;
16531;SDS011;66872;63.142;14.482;2023-04-01T04:40:50;1.10;;;1.00;;
16531;SDS011;66872;63.142;14.482;2023-04-01T04:43:16;1.20;;;1.07;;
16531;SDS011;66872;63.142;14.482;2023-04-01T04:45:43;0.90;;;0.90;;
16531;SDS011;66872;63.142;14.482;2023-04-01T04:48:10;1.13;;;1.03;;
16531;SDS011;66872;63.142;14.482;2023-04-01T04:50:43;1.17;;;1.07;;
16531;SDS011;66872;63.142;14.482;2023-04-01T04:53:10;1.30;;;1.20;;
16531;SDS011;66872;63.142;14.482;2023-04-01T04:55:36;1.13;;;1.03;;
16531;SDS011;66872;63.142;14.482;2023-04-01T04:58:02;1.47;;;1.13;;
16531;SDS011;66872;63.142;14.482;2023-04-01T05:00:28;1.23;;;1.07;;
16531;SDS011;66872;63.142;14.482;2023-04-01T05:02:53;1.10;;;1.00;;
16531;SDS011;66872;63.142;14.482;2023-04-01T05:05:19;1.40;;;1.23;;
16531;SDS011;66872;63.142;14.482;2023-04-01T05:07:45;1.40;;;1.20;;
16531;SDS011;66872;63.142;14.482;2023-04-01T05:10:11;1.40;;;0.97;;
16531;SDS011;66872;63.142;14.482;2023-04-01T05:12:36;1.00;;;1.00;;
16531;SDS011;66872;63.142;14.482;2023-04-01T05:15:04;1.53;;;0.93;;
16531;SDS011;66872;63.142;14.482;2023-04-01T05:17:30;1.47;;;1.10;;
16531;SDS011;66872;63.142;14.482;2023-04-01T05:19:56;1.57;;;1.10;;
16531;SDS011;66872;63.142;14.482;2023-04-01T05:22:22;1.50;;;1.17;;
16531;SDS011;66872;63.142;14.482;2023-04-01T05:24:48;2.43;;;1.17;;
16531;SDS011;66872;63.142;14.482;2023-04-01T05:27:14;1.67;;;1.00;;
16531;SDS011;66872;63.142;14.482;2023-04-01T05:29:40;1.20;;;1.00;;
16531;SDS011;66872;63.142;14.482;2023-04-01T05:32:06;1.10;;;1.00;;
16531;SDS011;66872;63.142;14.482;2023-04-01T05:34:31;1.77;;;1.13;;
16531;SDS011;66872;63.142;14.482;2023-04-01T05:36:57;1.03;;;0.90;;
16531;SDS011;66872;63.142;14.482;2023-04-01T05:39:23;1.53;;;1.10;;
16531;SDS011;66872;63.142;14.482;2023-04-01T05:41:49;2.13;;;1.00;;
16531;SDS011;66872;63.142;14.482;2023-04-01T05:44:14;1.27;;;0.93;;
16531;SDS011;66872;63.142;14.482;2023-04-01T05:46:40;1.07;;;1.00;;
16531;SDS011;66872;63.142;14.482;2023-04-01T05:49:07;1.20;;;1.00;;
16531;SDS011;66872;63.142;14.482;2023-04-01T05:51:32;1.20;;;0.97;;
16531;SDS011;66872;63.142;14.482;2023-04-01T05:53:58;1.23;;;1.03;;
16531;SDS011;66872;63.142;14.482;2023-04-01T05:56:24;1.20;;;1.07;;
16531;SDS011;66872;63.142;14.482;2023-04-01T05:58:50;1.10;;;1.00;;
16531;SDS011;66872;63.142;14.482;2023-04-01T06:01:18;1.10;;;1.00;;
16531;SDS011;66872;63.142;14.482;2023-04-01T06:03:44;1.20;;;1.10;;
16531;SDS011;66872;63.142;14.482;2023-04-01T06:06:15;0.83;;;0.83;;
16531;SDS011;66872;63.142;14.482;2023-04-01T06:08:47;1.30;;;0.90;;
16531;SDS011;66872;63.142;14.482;2023-04-01T06:11:17;2.00;;;1.20;;
16531;SDS011;66872;63.142;14.482;2023-04-01T06:44:28;1.20;;;1.00;;
16531;SDS011;66872;63.142;14.482;2023-04-01T06:53:03;1.00;;;1.00;;
16531;SDS011;66872;63.142;14.482;2023-04-01T06:55:26;1.07;;;0.97;;
16531;SDS011;66872;63.142;14.482;2023-04-01T06:57:54;1.60;;;1.00;;
16531;SDS011;66872;63.142;14.482;2023-04-01T07:00:27;1.60;;;1.00;;
16531;SDS011;66872;63.142;14.482;2023-04-01T07:03:00;1.03;;;0.97;;
16531;SDS011;66872;63.142;14.482;2023-04-01T07:05:28;1.50;;;1.10;;
16531;SDS011;66872;63.142;14.482;2023-04-01T07:07:57;1.10;;;1.00;;
16531;SDS011;66872;63.142;14.482;2023-04-01T07:10:38;1.40;;;1.20;;
16531;SDS011;66872;63.142;14.482;2023-04-01T07:13:21;1.23;;;1.10;;
16531;SDS011;66872;63.142;14.482;2023-04-01T07:16:53;1.90;;;1.20;;
16531;SDS011;66872;63.142;14.482;2023-04-01T07:19:02;0.90;;;0.90;;
16531;SDS011;66872;63.142;14.482;2023-04-01T07:21:56;1.17;;;1.03;;
16531;SDS011;66872;63.142;14.482;2023-04-01T07:24:35;1.23;;;1.00;;
16531;SDS011;66872;63.142;14.482;2023-04-01T07:27:05;0.80;;;0.80;;
16531;SDS011;66872;63.142;14.482;2023-04-01T07:29:34;1.37;;;1.00;;
16531;SDS011;66872;63.142;14.482;2023-04-01T07:34:37;0.90;;;0.90;;
16531;SDS011;66872;63.142;14.482;2023-04-01T07:37:13;0.90;;;0.80;;
16531;SDS011;66872;63.142;14.482;2023-04-01T07:42:42;1.10;;;1.00;;
16531;SDS011;66872;63.142;14.482;2023-04-01T07:45:36;1.20;;;1.10;;
16531;SDS011;66872;63.142;14.482;2023-04-01T07:56:51;1.40;;;1.10;;
16531;SDS011;66872;63.142;14.482;2023-04-01T08:02:36;0.90;;;0.90;;
16531;SDS011;66872;63.142;14.482;2023-04-01T08:05:25;1.00;;;0.90;;
16531;SDS011;66872;63.142;14.482;2023-04-01T08:10:40;1.10;;;1.00;;
16531;SDS011;66872;63.142;14.482;2023-04-01T08:13:35;1.10;;;1.00;;
16531;SDS011;66872;63.142;14.482;2023-04-01T08:16:05;1.60;;;1.10;;
16531;SDS011;66872;63.142;14.482;2023-04-01T08:21:47;1.10;;;1.00;;
16531;SDS011;66872;63.142;14.482;2023-04-01T08:24:40;1.17;;;1.00;;
16531;SDS011;66872;63.142;14.482;2023-04-01T08:27:21;1.47;;;0.90;;
16531;SDS011;66872;63.142;14.482;2023-04-01T08:32:25;0.90;;;0.90;;
16531;SDS011;66872;63.142;14.482;2023-04-01T08:37:45;1.43;;;1.07;;
16531;SDS011;66872;63.142;14.482;2023-04-01T08:46:26;0.93;;;0.83;;
16531;SDS011;66872;63.142;14.482;2023-04-01T08:52:25;1.30;;;0.90;;
16531;SDS011;66872;63.142;14.482;2023-04-01T09:00:47;2.57;;;1.13;;
16531;SDS011;66872;63.142;14.482;2023-04-01T09:03:35;1.03;;;0.90;;
16531;SDS011;66872;63.142;14.482;2023-04-01T09:06:27;1.10;;;0.83;;
16531;SDS011;66872;63.142;14.482;2023-04-01T09:20:06;1.93;;;1.07;;
16531;SDS011;66872;63.142;14.482;2023-04-01T09:23:02;3.27;;;1.17;;
16531;SDS011;66872;63.142;14.482;2023-04-01T09:49:30;3.60;;;1.50;;
16531;SDS011;66872;63.142;14.482;2023-04-01T09:52:24;4.13;;;1.37;;
16531;SDS011;66872;63.142;14.482;2023-04-01T09:54:56;1.53;;;1.10;;
16531;SDS011;66872;63.142;14.482;2023-04-01T10:20:28;1.50;;;1.10;;
16531;SDS011;66872;63.142;14.482;2023-04-01T10:28:47;2.07;;;1.20;;
16531;SDS011;66872;63.142;14.482;2023-04-01T10:46:21;1.47;;;1.10;;
16531;SDS011;66872;63.142;14.482;2023-04-01T10:56:55;1.77;;;1.20;;
16531;SDS011;66872;63.142;14.482;2023-04-01T11:02:14;2.43;;;1.23;;
16531;SDS011;66872;63.142;14.482;2023-04-01T11:16:18;2.60;;;1.03;;
16531;SDS011;66872;63.142;14.482;2023-04-01T11:27:49;1.83;;;1.30;;
16531;SDS011;66872;63.142;14.482;2023-04-01T11:33:20;2.53;;;1.20;;
16531;SDS011;66872;63.142;14.482;2023-04-01T11:56:02;1.40;;;1.03;;
16531;SDS011;66872;63.142;14.482;2023-04-01T12:07:40;1.13;;;1.00;;
16531;SDS011;66872;63.142;14.482;2023-04-01T12:10:18;2.63;;;1.00;;
16531;SDS011;66872;63.142;14.482;2023-04-01T12:18:28;2.03;;;1.10;;
16531;SDS011;66872;63.142;14.482;2023-04-01T12:21:22;1.50;;;1.10;;
16531;SDS011;66872;63.142;14.482;2023-04-01T12:23:56;1.43;;;1.10;;
16531;SDS011;66872;63.142;14.482;2023-04-01T12:32:34;2.13;;;0.97;;
16531;SDS011;66872;63.142;14.482;2023-04-01T12:35:14;1.20;;;1.10;;
16531;SDS011;66872;63.142;14.482;2023-04-01T12:40:30;1.37;;;1.10;;
16531;SDS011;66872;63.142;14.482;2023-04-01T12:49:17;1.33;;;1.00;;
16531;SDS011;66872;63.142;14.482;2023-04-01T13:05:25;1.70;;;1.00;;
16531;SDS011;66872;63.142;14.482;2023-04-01T13:08:05;0.93;;;0.80;;
16531;SDS011;66872;63.142;14.482;2023-04-01T13:29:04;1.23;;;0.90;;
16531;SDS011;66872;63.142;14.482;2023-04-01T13:34:39;1.10;;;1.00;;
16531;SDS011;66872;63.142;14.482;2023-04-01T13:39:57;1.10;;;1.00;;
16531;SDS011;66872;63.142;14.482;2023-04-01T13:42:46;1.80;;;1.10;;
16531;SDS011;66872;63.142;14.482;2023-04-01T13:55:54;1.17;;;1.07;;
16531;SDS011;66872;63.142;14.482;2023-04-01T13:58:38;2.07;;;1.00;;
16531;SDS011;66872;63.142;14.482;2023-04-01T14:12:44;1.83;;;1.27;;
16531;SDS011;66872;63.142;14.482;2023-04-01T14:15:34;1.50;;;1.30;;
16531;SDS011;66872;63.142;14.482;2023-04-01T14:18:36;1.77;;;1.10;;
16531;SDS011;66872;63.142;14.482;2023-04-01T14:50:49;3.03;;;1.00;;
16531;SDS011;66872;63.142;14.482;2023-04-01T14:53:34;1.70;;;1.10;;
16531;SDS011;66872;63.142;14.482;2023-04-01T14:56:06;1.17;;;1.00;;
16531;SDS011;66872;63.142;14.482;2023-04-01T14:58:41;1.33;;;1.00;;
16531;SDS011;66872;63.142;14.482;2023-04-01T15:01:27;1.53;;;1.10;;
16531;SDS011;66872;63.142;14.482;2023-04-01T15:07:03;1.87;;;1.40;;
16531;SDS011;66872;63.142;14.482;2023-04-01T15:21:18;16.73;;;1.97;;
16531;SDS011;66872;63.142;14.482;2023-04-01T15:32:42;3.13;;;1.30;;
16531;SDS011;66872;63.142;14.482;2023-04-01T15:41:15;67.47;;;8.73;;
16531;SDS011;66872;63.142;14.482;2023-04-01T15:43:46;43.23;;;6.50;;
16531;SDS011;66872;63.142;14.482;2023-04-01T15:51:51;20.50;;;3.43;;
16531;SDS011;66872;63.142;14.482;2023-04-01T15:57:00;29.47;;;5.07;;
16531;SDS011;66872;63.142;14.482;2023-04-01T16:02:34;18.63;;;4.07;;
16531;SDS011;66872;63.142;14.482;2023-04-01T16:05:27;23.57;;;4.30;;
16531;SDS011;66872;63.142;14.482;2023-04-01T16:20:12;188.50;;;17.33;;
16531;SDS011;66872;63.142;14.482;2023-04-01T16:28:18;201.00;;;20.90;;
16531;SDS011;66872;63.142;14.482;2023-04-01T16:30:56;175.87;;;18.47;;
16531;SDS011;66872;63.142;14.482;2023-04-01T16:39:22;92.20;;;12.67;;
16531;SDS011;66872;63.142;14.482;2023-04-01T16:44:31;61.60;;;9.70;;
16531;SDS011;66872;63.142;14.482;2023-04-01T16:47:27;44.30;;;8.00;;
16531;SDS011;66872;63.142;14.482;2023-04-01T16:50:00;48.77;;;6.83;;
16531;SDS011;66872;63.142;14.482;2023-04-01T16:55:19;32.57;;;5.73;;
16531;SDS011;66872;63.142;14.482;2023-04-01T16:57:58;31.50;;;5.30;;
16531;SDS011;66872;63.142;14.482;2023-04-01T17:00:26;26.00;;;4.87;;
16531;SDS011;66872;63.142;14.482;2023-04-01T17:05:49;17.63;;;4.60;;
16531;SDS011;66872;63.142;14.482;2023-04-01T17:08:33;28.77;;;4.20;;
16531;SDS011;66872;63.142;14.482;2023-04-01T17:11:19;12.50;;;4.20;;
16531;SDS011;66872;63.142;14.482;2023-04-01T17:25:08;10.20;;;3.00;;
16531;SDS011;66872;63.142;14.482;2023-04-01T17:30:41;7.87;;;2.20;;
16531;SDS011;66872;63.142;14.482;2023-04-01T17:38:57;9.93;;;2.57;;
16531;SDS011;66872;63.142;14.482;2023-04-01T17:44:31;7.03;;;1.80;;
16531;SDS011;66872;63.142;14.482;2023-04-01T17:47:07;7.97;;;2.00;;
16531;SDS011;66872;63.142;14.482;2023-04-01T17:52:47;4.80;;;2.03;;
16531;SDS011;66872;63.142;14.482;2023-04-01T18:00:59;5.10;;;2.00;;
16531;SDS011;66872;63.142;14.482;2023-04-01T18:28:11;4.30;;;1.97;;
16531;SDS011;66872;63.142;14.482;2023-04-01T18:30:50;5.07;;;2.40;;
16531;SDS011;66872;63.142;14.482;2023-04-01T18:33:31;4.77;;;2.10;;
16531;SDS011;66872;63.142;14.482;2023-04-01T18:41:16;5.57;;;1.80;;
16531;SDS011;66872;63.142;14.482;2023-04-01T18:49:45;2.90;;;1.80;;
16531;SDS011;66872;63.142;14.482;2023-04-01T18:57:46;2.97;;;1.70;;
16531;SDS011;66872;63.142;14.482;2023-04-01T19:00:37;3.10;;;1.83;;
16531;SDS011;66872;63.142;14.482;2023-04-01T19:03:20;4.80;;;2.10;;
16531;SDS011;66872;63.142;14.482;2023-04-01T19:06:15;4.73;;;1.87;;
16531;SDS011;66872;63.142;14.482;2023-04-01T19:09:21;4.67;;;1.80;;
16531;SDS011;66872;63.142;14.482;2023-04-01T19:12:19;4.70;;;2.17;;
16531;SDS011;66872;63.142;14.482;2023-04-01T19:25:35;3.10;;;1.83;;
16531;SDS011;66872;63.142;14.482;2023-04-01T19:31:45;2.57;;;1.50;;
16531;SDS011;66872;63.142;14.482;2023-04-01T19:34:15;3.77;;;1.70;;
16531;SDS011;66872;63.142;14.482;2023-04-01T19:36:56;3.70;;;1.97;;
16531;SDS011;66872;63.142;14.482;2023-04-01T19:44:57;4.33;;;1.70;;
16531;SDS011;66872;63.142;14.482;2023-04-01T19:53:05;3.33;;;1.70;;
16531;SDS011;66872;63.142;14.482;2023-04-01T20:03:58;4.50;;;1.70;;
16531;SDS011;66872;63.142;14.482;2023-04-01T20:09:38;4.23;;;1.60;;
16531;SDS011;66872;63.142;14.482;2023-04-01T20:12:21;3.97;;;1.80;;
16531;SDS011;66872;63.142;14.482;2023-04-01T20:15:23;4.17;;;1.70;;
16531;SDS011;66872;63.142;14.482;2023-04-01T20:18:01;3.00;;;1.50;;
16531;SDS011;66872;63.142;14.482;2023-04-01T20:20:37;3.03;;;1.33;;
16531;SDS011;66872;63.142;14.482;2023-04-01T20:25:52;3.23;;;1.50;;
16531;SDS011;66872;63.142;14.482;2023-04-01T20:28:25;2.40;;;1.30;;
16531;SDS011;66872;63.142;14.482;2023-04-01T20:36:31;3.03;;;1.60;;
16531;SDS011;66872;63.142;14.482;2023-04-01T20:42:26;2.77;;;1.40;;
16531;SDS011;66872;63.142;14.482;2023-04-01T20:53:36;2.10;;;1.40;;
16531;SDS011;66872;63.142;14.482;2023-04-01T21:01:47;2.07;;;1.40;;
16531;SDS011;66872;63.142;14.482;2023-04-01T21:07:50;2.57;;;1.43;;
16531;SDS011;66872;63.142;14.482;2023-04-01T21:21:26;2.40;;;1.23;;
16531;SDS011;66872;63.142;14.482;2023-04-01T21:47:40;2.57;;;1.50;;
16531;SDS011;66872;63.142;14.482;2023-04-01T21:49:54;1.97;;;1.40;;
16531;SDS011;66872;63.142;14.482;2023-04-01T21:52:35;3.00;;;1.40;;
16531;SDS011;66872;63.142;14.482;2023-04-01T21:58:03;2.27;;;1.20;;
16531;SDS011;66872;63.142;14.482;2023-04-01T22:04:22;3.30;;;1.40;;
16531;SDS011;66872;63.142;14.482;2023-04-01T22:06:44;2.33;;;1.17;;
16531;SDS011;66872;63.142;14.482;2023-04-01T22:09:31;2.73;;;1.30;;
16531;SDS011;66872;63.142;14.482;2023-04-01T22:15:12;2.10;;;1.30;;
16531;SDS011;66872;63.142;14.482;2023-04-01T22:17:54;1.20;;;1.10;;
16531;SDS011;66872;63.142;14.482;2023-04-01T22:20:40;3.07;;;1.40;;
16531;SDS011;66872;63.142;14.482;2023-04-01T22:31:11;2.40;;;1.33;;
16531;SDS011;66872;63.142;14.482;2023-04-01T22:36:50;2.27;;;1.20;;
16531;SDS011;66872;63.142;14.482;2023-04-01T22:42:16;1.63;;;1.17;;
16531;SDS011;66872;63.142;14.482;2023-04-01T22:52:40;2.03;;;1.20;;
16531;SDS011;66872;63.142;14.482;2023-04-01T22:55:25;3.27;;;1.40;;
16531;SDS011;66872;63.142;14.482;2023-04-01T22:57:58;1.60;;;1.30;;
16531;SDS011;66872;63.142;14.482;2023-04-01T23:00:36;1.60;;;1.27;;
16531;SDS011;66872;63.142;14.482;2023-04-01T23:06:18;1.90;;;1.13;;
16531;SDS011;66872;63.142;14.482;2023-04-01T23:11:50;1.20;;;1.10;;
16531;SDS011;66872;63.142;14.482;2023-04-01T23:17:01;2.87;;;1.50;;
16531;SDS011;66872;63.142;14.482;2023-04-01T23:19:41;2.40;;;1.13;;
16531;SDS011;66872;63.142;14.482;2023-04-01T23:27:37;1.63;;;1.20;;
16531;SDS011;66872;63.142;14.482;2023-04-01T23:33:17;1.77;;;1.00;;
16531;SDS011;66872;63.142;14.482;2023-04-01T23:38:39;3.30;;;1.37;;
16531;SDS011;66872;63.142;14.482;2023-04-01T23:41:07;1.40;;;1.00;;
16531;SDS011;66872;63.142;14.482;2023-04-01T23:43:42;1.10;;;1.00;;
16531;SDS011;66872;63.142;14.482;2023-04-01T23:46:09;1.47;;;1.20;;
16531;SDS011;66872;63.142;14.482;2023-04-01T23:48:41;1.67;;;1.13;;
16531;SDS011;66872;63.142;14.482;2023-04-01T23:54:17;2.17;;;1.07;;
16531;SDS011;66872;63.142;14.482;2023-04-01T23:56:49;1.53;;;1.10;;
16531;SDS011;66872;63.142;14.482;2023-04-01T23:59:22;1.67;;;1.23;;
